sensor_id;sensor_type;location;lat;lon;timestamp;P1;durP1;ratioP1;P2;durP2;ratioP2
32094;SDS011;18608;53.688;10.748;2023-05-10T00:00:59;10.60;;;4.30;;
32094;SDS011;18608;53.688;10.748;2023-05-10T00:03:25;6.97;;;3.60;;
32094;SDS011;18608;53.688;10.748;2023-05-10T00:05:51;7.07;;;4.80;;
32094;SDS011;18608;53.688;10.748;2023-05-10T00:08:17;7.87;;;4.20;;
32094;SDS011;18608;53.688;10.748;2023-05-10T00:10:43;8.87;;;3.67;;
32094;SDS011;18608;53.688;10.748;2023-05-10T00:13:09;5.83;;;4.13;;
32094;SDS011;18608;53.688;10.748;2023-05-10T00:15:35;10.53;;;4.70;;
32094;SDS011;18608;53.688;10.748;2023-05-10T00:18:01;5.90;;;3.90;;
32094;SDS011;18608;53.688;10.748;2023-05-10T00:20:27;7.30;;;4.33;;
32094;SDS011;18608;53.688;10.748;2023-05-10T00:22:53;9.00;;;5.10;;
32094;SDS011;18608;53.688;10.748;2023-05-10T00:25:18;5.37;;;4.40;;
32094;SDS011;18608;53.688;10.748;2023-05-10T00:27:46;6.47;;;4.47;;
32094;SDS011;18608;53.688;10.748;2023-05-10T00:30:12;6.63;;;4.80;;
32094;SDS011;18608;53.688;10.748;2023-05-10T00:32:38;9.27;;;4.77;;
32094;SDS011;18608;53.688;10.748;2023-05-10T00:35:04;6.40;;;4.10;;
32094;SDS011;18608;53.688;10.748;2023-05-10T00:37:30;6.33;;;4.17;;
32094;SDS011;18608;53.688;10.748;2023-05-10T00:39:56;7.13;;;4.33;;
32094;SDS011;18608;53.688;10.748;2023-05-10T00:42:22;5.60;;;4.27;;
32094;SDS011;18608;53.688;10.748;2023-05-10T00:44:48;5.80;;;4.20;;
32094;SDS011;18608;53.688;10.748;2023-05-10T00:47:15;20.40;;;4.33;;
32094;SDS011;18608;53.688;10.748;2023-05-10T00:49:43;11.87;;;4.63;;
32094;SDS011;18608;53.688;10.748;2023-05-10T00:52:09;4.70;;;4.20;;
32094;SDS011;18608;53.688;10.748;2023-05-10T00:54:35;9.33;;;3.93;;
32094;SDS011;18608;53.688;10.748;2023-05-10T00:57:01;3.67;;;3.33;;
32094;SDS011;18608;53.688;10.748;2023-05-10T00:59:28;18.43;;;4.40;;
32094;SDS011;18608;53.688;10.748;2023-05-10T01:01:54;7.97;;;4.50;;
32094;SDS011;18608;53.688;10.748;2023-05-10T01:04:20;7.23;;;3.50;;
32094;SDS011;18608;53.688;10.748;2023-05-10T01:06:50;4.50;;;3.47;;
32094;SDS011;18608;53.688;10.748;2023-05-10T01:09:17;7.77;;;4.70;;
32094;SDS011;18608;53.688;10.748;2023-05-10T01:11:43;5.97;;;4.03;;
32094;SDS011;18608;53.688;10.748;2023-05-10T01:14:10;5.73;;;4.63;;
32094;SDS011;18608;53.688;10.748;2023-05-10T01:16:37;4.70;;;4.17;;
32094;SDS011;18608;53.688;10.748;2023-05-10T01:19:05;8.00;;;4.47;;
32094;SDS011;18608;53.688;10.748;2023-05-10T01:38:40;7.00;;;3.93;;
32094;SDS011;18608;53.688;10.748;2023-05-10T01:46:36;4.80;;;4.40;;
32094;SDS011;18608;53.688;10.748;2023-05-10T01:49:03;4.57;;;4.27;;
32094;SDS011;18608;53.688;10.748;2023-05-10T01:51:39;6.23;;;4.27;;
32094;SDS011;18608;53.688;10.748;2023-05-10T01:54:10;4.20;;;3.80;;
32094;SDS011;18608;53.688;10.748;2023-05-10T01:56:38;10.30;;;5.47;;
32094;SDS011;18608;53.688;10.748;2023-05-10T01:59:06;5.83;;;4.40;;
32094;SDS011;18608;53.688;10.748;2023-05-10T02:01:36;5.43;;;4.93;;
32094;SDS011;18608;53.688;10.748;2023-05-10T02:04:03;7.93;;;3.57;;
32094;SDS011;18608;53.688;10.748;2023-05-10T02:06:31;5.67;;;4.37;;
32094;SDS011;18608;53.688;10.748;2023-05-10T02:08:59;9.17;;;5.00;;
32094;SDS011;18608;53.688;10.748;2023-05-10T02:11:27;10.23;;;4.70;;
32094;SDS011;18608;53.688;10.748;2023-05-10T02:13:54;9.50;;;5.00;;
32094;SDS011;18608;53.688;10.748;2023-05-10T02:16:21;6.03;;;4.43;;
32094;SDS011;18608;53.688;10.748;2023-05-10T02:18:50;5.13;;;4.40;;
32094;SDS011;18608;53.688;10.748;2023-05-10T02:21:17;4.87;;;4.10;;
32094;SDS011;18608;53.688;10.748;2023-05-10T02:23:45;6.67;;;5.07;;
32094;SDS011;18608;53.688;10.748;2023-05-10T02:26:13;6.60;;;4.50;;
32094;SDS011;18608;53.688;10.748;2023-05-10T02:28:41;7.03;;;4.83;;
32094;SDS011;18608;53.688;10.748;2023-05-10T02:31:08;7.60;;;5.00;;
32094;SDS011;18608;53.688;10.748;2023-05-10T02:33:35;7.43;;;5.40;;
32094;SDS011;18608;53.688;10.748;2023-05-10T02:36:05;5.30;;;4.37;;
32094;SDS011;18608;53.688;10.748;2023-05-10T02:38:33;13.50;;;6.10;;
32094;SDS011;18608;53.688;10.748;2023-05-10T02:41:01;8.17;;;6.13;;
32094;SDS011;18608;53.688;10.748;2023-05-10T02:43:28;5.97;;;5.57;;
32094;SDS011;18608;53.688;10.748;2023-05-10T02:45:56;5.70;;;5.17;;
32094;SDS011;18608;53.688;10.748;2023-05-10T02:48:22;9.00;;;5.87;;
32094;SDS011;18608;53.688;10.748;2023-05-10T02:50:48;5.30;;;4.03;;
32094;SDS011;18608;53.688;10.748;2023-05-10T02:53:18;8.90;;;5.67;;
32094;SDS011;18608;53.688;10.748;2023-05-10T02:55:49;11.83;;;4.93;;
32094;SDS011;18608;53.688;10.748;2023-05-10T02:58:17;6.00;;;4.90;;
32094;SDS011;18608;53.688;10.748;2023-05-10T03:00:46;5.77;;;5.27;;
32094;SDS011;18608;53.688;10.748;2023-05-10T03:03:12;5.73;;;5.13;;
32094;SDS011;18608;53.688;10.748;2023-05-10T03:05:38;8.50;;;4.73;;
32094;SDS011;18608;53.688;10.748;2023-05-10T03:08:04;7.23;;;4.27;;
32094;SDS011;18608;53.688;10.748;2023-05-10T03:10:31;13.17;;;5.90;;
32094;SDS011;18608;53.688;10.748;2023-05-10T03:21:20;5.00;;;4.30;;
32094;SDS011;18608;53.688;10.748;2023-05-10T03:23:51;5.83;;;5.27;;
32094;SDS011;18608;53.688;10.748;2023-05-10T03:26:25;6.57;;;5.10;;
32094;SDS011;18608;53.688;10.748;2023-05-10T03:28:52;7.53;;;5.73;;
32094;SDS011;18608;53.688;10.748;2023-05-10T03:31:18;5.93;;;5.33;;
32094;SDS011;18608;53.688;10.748;2023-05-10T03:33:48;8.10;;;5.37;;
32094;SDS011;18608;53.688;10.748;2023-05-10T03:36:14;7.00;;;4.27;;
32094;SDS011;18608;53.688;10.748;2023-05-10T03:38:41;7.03;;;5.07;;
32094;SDS011;18608;53.688;10.748;2023-05-10T03:41:06;6.17;;;4.70;;
32094;SDS011;18608;53.688;10.748;2023-05-10T03:43:33;6.17;;;4.47;;
32094;SDS011;18608;53.688;10.748;2023-05-10T03:46:01;7.17;;;5.30;;
32094;SDS011;18608;53.688;10.748;2023-05-10T03:48:27;6.97;;;5.40;;
32094;SDS011;18608;53.688;10.748;2023-05-10T03:50:53;8.33;;;4.60;;
32094;SDS011;18608;53.688;10.748;2023-05-10T03:53:19;9.10;;;5.47;;
32094;SDS011;18608;53.688;10.748;2023-05-10T03:55:45;5.40;;;4.90;;
32094;SDS011;18608;53.688;10.748;2023-05-10T03:58:11;9.83;;;5.27;;
32094;SDS011;18608;53.688;10.748;2023-05-10T04:00:37;8.07;;;5.90;;
32094;SDS011;18608;53.688;10.748;2023-05-10T04:03:08;7.17;;;4.77;;
32094;SDS011;18608;53.688;10.748;2023-05-10T04:05:34;8.20;;;5.13;;
32094;SDS011;18608;53.688;10.748;2023-05-10T04:08:00;5.80;;;5.20;;
32094;SDS011;18608;53.688;10.748;2023-05-10T04:10:26;26.90;;;6.07;;
32094;SDS011;18608;53.688;10.748;2023-05-10T04:12:53;8.47;;;5.67;;
32094;SDS011;18608;53.688;10.748;2023-05-10T04:15:19;6.03;;;5.40;;
32094;SDS011;18608;53.688;10.748;2023-05-10T04:17:45;7.43;;;5.00;;
32094;SDS011;18608;53.688;10.748;2023-05-10T04:20:12;5.77;;;5.27;;
32094;SDS011;18608;53.688;10.748;2023-05-10T04:22:38;5.03;;;4.53;;
32094;SDS011;18608;53.688;10.748;2023-05-10T04:25:04;9.57;;;5.37;;
32094;SDS011;18608;53.688;10.748;2023-05-10T04:27:30;6.20;;;5.10;;
32094;SDS011;18608;53.688;10.748;2023-05-10T04:29:56;6.37;;;4.53;;
32094;SDS011;18608;53.688;10.748;2023-05-10T04:32:22;11.70;;;5.50;;
32094;SDS011;18608;53.688;10.748;2023-05-10T04:34:48;5.90;;;5.33;;
32094;SDS011;18608;53.688;10.748;2023-05-10T04:37:16;5.97;;;4.70;;
32094;SDS011;18608;53.688;10.748;2023-05-10T04:39:42;10.03;;;4.90;;
32094;SDS011;18608;53.688;10.748;2023-05-10T04:42:08;5.30;;;4.80;;
32094;SDS011;18608;53.688;10.748;2023-05-10T04:44:34;7.53;;;5.00;;
32094;SDS011;18608;53.688;10.748;2023-05-10T04:47:00;5.67;;;5.13;;
32094;SDS011;18608;53.688;10.748;2023-05-10T04:49:27;4.57;;;4.23;;
32094;SDS011;18608;53.688;10.748;2023-05-10T04:51:53;6.90;;;4.93;;
32094;SDS011;18608;53.688;10.748;2023-05-10T04:54:19;4.90;;;4.47;;
32094;SDS011;18608;53.688;10.748;2023-05-10T04:56:45;8.40;;;5.50;;
32094;SDS011;18608;53.688;10.748;2023-05-10T04:59:11;7.83;;;5.20;;
32094;SDS011;18608;53.688;10.748;2023-05-10T05:01:37;4.93;;;4.43;;
32094;SDS011;18608;53.688;10.748;2023-05-10T05:04:03;6.70;;;5.67;;
32094;SDS011;18608;53.688;10.748;2023-05-10T05:06:29;4.70;;;4.30;;
32094;SDS011;18608;53.688;10.748;2023-05-10T05:08:55;5.47;;;4.63;;
32094;SDS011;18608;53.688;10.748;2023-05-10T05:11:21;7.70;;;5.00;;
32094;SDS011;18608;53.688;10.748;2023-05-10T05:13:47;7.40;;;5.17;;
32094;SDS011;18608;53.688;10.748;2023-05-10T05:16:13;6.20;;;5.60;;
32094;SDS011;18608;53.688;10.748;2023-05-10T05:18:39;7.73;;;4.70;;
32094;SDS011;18608;53.688;10.748;2023-05-10T05:21:14;7.37;;;5.80;;
32094;SDS011;18608;53.688;10.748;2023-05-10T05:23:41;6.00;;;5.40;;
32094;SDS011;18608;53.688;10.748;2023-05-10T05:26:07;13.53;;;5.50;;
32094;SDS011;18608;53.688;10.748;2023-05-10T05:28:33;13.03;;;5.43;;
32094;SDS011;18608;53.688;10.748;2023-05-10T05:31:02;5.97;;;5.37;;
32094;SDS011;18608;53.688;10.748;2023-05-10T05:33:28;8.03;;;5.30;;
32094;SDS011;18608;53.688;10.748;2023-05-10T05:35:54;5.93;;;5.20;;
32094;SDS011;18608;53.688;10.748;2023-05-10T05:38:20;5.50;;;4.60;;
32094;SDS011;18608;53.688;10.748;2023-05-10T05:40:46;8.33;;;4.00;;
32094;SDS011;18608;53.688;10.748;2023-05-10T05:43:12;5.70;;;4.93;;
32094;SDS011;18608;53.688;10.748;2023-05-10T05:45:38;7.70;;;5.67;;
32094;SDS011;18608;53.688;10.748;2023-05-10T05:48:04;5.70;;;5.10;;
32094;SDS011;18608;53.688;10.748;2023-05-10T05:50:30;6.43;;;4.70;;
32094;SDS011;18608;53.688;10.748;2023-05-10T05:52:56;8.60;;;5.80;;
32094;SDS011;18608;53.688;10.748;2023-05-10T05:55:22;6.43;;;5.33;;
32094;SDS011;18608;53.688;10.748;2023-05-10T05:57:49;5.90;;;5.30;;
32094;SDS011;18608;53.688;10.748;2023-05-10T06:00:15;6.20;;;4.47;;
32094;SDS011;18608;53.688;10.748;2023-05-10T06:02:41;8.20;;;4.97;;
32094;SDS011;18608;53.688;10.748;2023-05-10T06:05:07;6.07;;;5.43;;
32094;SDS011;18608;53.688;10.748;2023-05-10T06:07:33;5.60;;;4.97;;
32094;SDS011;18608;53.688;10.748;2023-05-10T06:09:59;5.37;;;4.80;;
32094;SDS011;18608;53.688;10.748;2023-05-10T06:12:25;6.60;;;4.80;;
32094;SDS011;18608;53.688;10.748;2023-05-10T06:14:51;8.57;;;4.90;;
32094;SDS011;18608;53.688;10.748;2023-05-10T06:17:17;8.33;;;5.17;;
32094;SDS011;18608;53.688;10.748;2023-05-10T06:19:43;10.17;;;4.43;;
32094;SDS011;18608;53.688;10.748;2023-05-10T06:22:09;5.57;;;5.07;;
32094;SDS011;18608;53.688;10.748;2023-05-10T06:24:35;8.97;;;6.00;;
32094;SDS011;18608;53.688;10.748;2023-05-10T06:27:01;6.10;;;5.60;;
32094;SDS011;18608;53.688;10.748;2023-05-10T06:29:29;6.10;;;5.00;;
32094;SDS011;18608;53.688;10.748;2023-05-10T06:31:55;7.03;;;4.83;;
32094;SDS011;18608;53.688;10.748;2023-05-10T06:34:21;7.80;;;5.30;;
32094;SDS011;18608;53.688;10.748;2023-05-10T06:36:47;6.40;;;5.10;;
32094;SDS011;18608;53.688;10.748;2023-05-10T06:39:13;12.47;;;5.03;;
32094;SDS011;18608;53.688;10.748;2023-05-10T06:41:39;12.37;;;6.37;;
32094;SDS011;18608;53.688;10.748;2023-05-10T06:44:05;9.00;;;5.60;;
32094;SDS011;18608;53.688;10.748;2023-05-10T06:46:31;6.00;;;4.93;;
32094;SDS011;18608;53.688;10.748;2023-05-10T06:48:57;12.23;;;5.97;;
32094;SDS011;18608;53.688;10.748;2023-05-10T06:51:23;5.27;;;4.70;;
32094;SDS011;18608;53.688;10.748;2023-05-10T06:53:49;14.13;;;5.70;;
32094;SDS011;18608;53.688;10.748;2023-05-10T06:56:15;8.80;;;5.77;;
32094;SDS011;18608;53.688;10.748;2023-05-10T06:58:41;6.60;;;5.07;;
32094;SDS011;18608;53.688;10.748;2023-05-10T07:01:07;6.10;;;5.10;;
32094;SDS011;18608;53.688;10.748;2023-05-10T07:03:33;7.50;;;5.50;;
32094;SDS011;18608;53.688;10.748;2023-05-10T07:06:02;7.03;;;5.20;;
32094;SDS011;18608;53.688;10.748;2023-05-10T07:08:31;9.73;;;5.50;;
32094;SDS011;18608;53.688;10.748;2023-05-10T07:11:04;6.30;;;5.40;;
32094;SDS011;18608;53.688;10.748;2023-05-10T07:13:32;8.30;;;4.97;;
32094;SDS011;18608;53.688;10.748;2023-05-10T07:15:59;8.30;;;5.13;;
32094;SDS011;18608;53.688;10.748;2023-05-10T07:18:25;5.40;;;4.90;;
32094;SDS011;18608;53.688;10.748;2023-05-10T07:20:51;5.73;;;4.80;;
32094;SDS011;18608;53.688;10.748;2023-05-10T07:23:17;4.50;;;4.10;;
32094;SDS011;18608;53.688;10.748;2023-05-10T07:25:47;11.37;;;4.53;;
32094;SDS011;18608;53.688;10.748;2023-05-10T07:28:14;5.60;;;5.03;;
32094;SDS011;18608;53.688;10.748;2023-05-10T07:30:40;10.90;;;4.43;;
32094;SDS011;18608;53.688;10.748;2023-05-10T07:33:06;7.60;;;4.80;;
32094;SDS011;18608;53.688;10.748;2023-05-10T07:35:33;6.13;;;5.20;;
32094;SDS011;18608;53.688;10.748;2023-05-10T07:37:59;6.03;;;4.57;;
32094;SDS011;18608;53.688;10.748;2023-05-10T07:40:25;6.73;;;5.37;;
32094;SDS011;18608;53.688;10.748;2023-05-10T07:42:51;6.03;;;4.97;;
32094;SDS011;18608;53.688;10.748;2023-05-10T07:45:17;6.73;;;5.23;;
32094;SDS011;18608;53.688;10.748;2023-05-10T07:47:43;6.00;;;4.93;;
32094;SDS011;18608;53.688;10.748;2023-05-10T07:50:09;6.93;;;6.00;;
32094;SDS011;18608;53.688;10.748;2023-05-10T07:52:36;5.77;;;4.70;;
32094;SDS011;18608;53.688;10.748;2023-05-10T07:55:02;7.50;;;5.40;;
32094;SDS011;18608;53.688;10.748;2023-05-10T07:57:28;7.47;;;5.33;;
32094;SDS011;18608;53.688;10.748;2023-05-10T07:59:54;8.80;;;5.73;;
32094;SDS011;18608;53.688;10.748;2023-05-10T08:02:20;8.60;;;5.00;;
32094;SDS011;18608;53.688;10.748;2023-05-10T08:04:46;6.60;;;4.50;;
32094;SDS011;18608;53.688;10.748;2023-05-10T08:07:12;7.13;;;4.83;;
32094;SDS011;18608;53.688;10.748;2023-05-10T08:09:38;4.97;;;4.47;;
32094;SDS011;18608;53.688;10.748;2023-05-10T08:12:04;11.03;;;4.20;;
32094;SDS011;18608;53.688;10.748;2023-05-10T08:14:30;5.77;;;5.27;;
32094;SDS011;18608;53.688;10.748;2023-05-10T08:16:56;5.17;;;4.77;;
32094;SDS011;18608;53.688;10.748;2023-05-10T08:19:22;9.93;;;4.87;;
32094;SDS011;18608;53.688;10.748;2023-05-10T08:21:48;7.07;;;5.03;;
32094;SDS011;18608;53.688;10.748;2023-05-10T08:24:14;10.63;;;4.83;;
32094;SDS011;18608;53.688;10.748;2023-05-10T08:26:40;12.17;;;4.87;;
32094;SDS011;18608;53.688;10.748;2023-05-10T08:29:07;5.60;;;4.87;;
32094;SDS011;18608;53.688;10.748;2023-05-10T08:31:36;8.40;;;5.17;;
32094;SDS011;18608;53.688;10.748;2023-05-10T08:34:01;9.03;;;5.00;;
32094;SDS011;18608;53.688;10.748;2023-05-10T08:36:27;7.63;;;4.80;;
32094;SDS011;18608;53.688;10.748;2023-05-10T08:38:53;6.03;;;4.87;;
32094;SDS011;18608;53.688;10.748;2023-05-10T08:41:20;11.17;;;5.90;;
32094;SDS011;18608;53.688;10.748;2023-05-10T08:43:46;8.10;;;5.43;;
32094;SDS011;18608;53.688;10.748;2023-05-10T08:46:16;8.47;;;5.40;;
32094;SDS011;18608;53.688;10.748;2023-05-10T08:48:43;6.63;;;5.23;;
32094;SDS011;18608;53.688;10.748;2023-05-10T08:51:19;7.33;;;4.67;;
32094;SDS011;18608;53.688;10.748;2023-05-10T08:53:48;19.23;;;4.90;;
32094;SDS011;18608;53.688;10.748;2023-05-10T08:56:15;4.10;;;3.80;;
32094;SDS011;18608;53.688;10.748;2023-05-10T08:58:42;7.43;;;5.30;;
32094;SDS011;18608;53.688;10.748;2023-05-10T09:01:08;5.07;;;4.57;;
32094;SDS011;18608;53.688;10.748;2023-05-10T09:03:35;5.30;;;4.90;;
32094;SDS011;18608;53.688;10.748;2023-05-10T09:06:03;4.17;;;3.77;;
32094;SDS011;18608;53.688;10.748;2023-05-10T09:08:30;13.23;;;5.03;;
32094;SDS011;18608;53.688;10.748;2023-05-10T09:10:56;4.43;;;4.03;;
32094;SDS011;18608;53.688;10.748;2023-05-10T09:13:26;5.87;;;5.00;;
32094;SDS011;18608;53.688;10.748;2023-05-10T09:15:52;8.53;;;4.60;;
32094;SDS011;18608;53.688;10.748;2023-05-10T09:18:18;7.20;;;4.63;;
32094;SDS011;18608;53.688;10.748;2023-05-10T09:20:44;8.80;;;4.50;;
32094;SDS011;18608;53.688;10.748;2023-05-10T09:23:10;6.93;;;6.17;;
32094;SDS011;18608;53.688;10.748;2023-05-10T09:25:36;5.90;;;5.30;;
32094;SDS011;18608;53.688;10.748;2023-05-10T09:28:05;5.07;;;4.13;;
32094;SDS011;18608;53.688;10.748;2023-05-10T09:30:33;4.50;;;4.10;;
32094;SDS011;18608;53.688;10.748;2023-05-10T09:32:59;12.77;;;5.20;;
32094;SDS011;18608;53.688;10.748;2023-05-10T09:35:26;5.87;;;5.30;;
32094;SDS011;18608;53.688;10.748;2023-05-10T09:37:54;5.53;;;4.97;;
32094;SDS011;18608;53.688;10.748;2023-05-10T09:40:22;5.40;;;4.53;;
32094;SDS011;18608;53.688;10.748;2023-05-10T09:42:58;8.50;;;5.20;;
32094;SDS011;18608;53.688;10.748;2023-05-10T09:45:31;8.43;;;5.57;;
32094;SDS011;18608;53.688;10.748;2023-05-10T09:47:58;17.43;;;7.77;;
32094;SDS011;18608;53.688;10.748;2023-05-10T09:50:25;6.10;;;5.10;;
32094;SDS011;18608;53.688;10.748;2023-05-10T09:52:52;8.10;;;5.40;;
32094;SDS011;18608;53.688;10.748;2023-05-10T09:55:23;9.20;;;6.10;;
32094;SDS011;18608;53.688;10.748;2023-05-10T09:57:58;8.93;;;5.23;;
32094;SDS011;18608;53.688;10.748;2023-05-10T10:00:25;6.77;;;5.43;;
32094;SDS011;18608;53.688;10.748;2023-05-10T10:02:56;5.27;;;4.77;;
32094;SDS011;18608;53.688;10.748;2023-05-10T10:05:29;5.10;;;4.70;;
32094;SDS011;18608;53.688;10.748;2023-05-10T10:07:59;5.30;;;4.80;;
32094;SDS011;18608;53.688;10.748;2023-05-10T10:10:26;8.67;;;6.07;;
32094;SDS011;18608;53.688;10.748;2023-05-10T10:12:52;10.13;;;5.33;;
32094;SDS011;18608;53.688;10.748;2023-05-10T10:15:20;6.70;;;5.73;;
32094;SDS011;18608;53.688;10.748;2023-05-10T10:17:46;5.43;;;4.93;;
32094;SDS011;18608;53.688;10.748;2023-05-10T10:20:14;5.57;;;4.93;;
32094;SDS011;18608;53.688;10.748;2023-05-10T10:22:40;5.53;;;4.60;;
32094;SDS011;18608;53.688;10.748;2023-05-10T10:25:08;11.80;;;5.33;;
32094;SDS011;18608;53.688;10.748;2023-05-10T10:35:20;8.93;;;6.10;;
32094;SDS011;18608;53.688;10.748;2023-05-10T10:37:47;7.90;;;5.10;;
32094;SDS011;18608;53.688;10.748;2023-05-10T10:40:28;5.57;;;5.07;;
32094;SDS011;18608;53.688;10.748;2023-05-10T10:42:55;4.70;;;4.30;;
32094;SDS011;18608;53.688;10.748;2023-05-10T10:45:22;8.73;;;5.33;;
32094;SDS011;18608;53.688;10.748;2023-05-10T10:47:48;5.67;;;5.10;;
32094;SDS011;18608;53.688;10.748;2023-05-10T10:50:15;8.37;;;6.53;;
32094;SDS011;18608;53.688;10.748;2023-05-10T10:52:44;8.07;;;4.90;;
32094;SDS011;18608;53.688;10.748;2023-05-10T11:00:19;5.27;;;4.83;;
32094;SDS011;18608;53.688;10.748;2023-05-10T11:02:46;6.53;;;4.63;;
32094;SDS011;18608;53.688;10.748;2023-05-10T11:07:57;6.90;;;5.60;;
32094;SDS011;18608;53.688;10.748;2023-05-10T11:10:25;7.13;;;6.03;;
32094;SDS011;18608;53.688;10.748;2023-05-10T11:12:52;10.63;;;5.73;;
32094;SDS011;18608;53.688;10.748;2023-05-10T11:15:31;6.90;;;5.10;;
32094;SDS011;18608;53.688;10.748;2023-05-10T11:18:20;6.43;;;4.90;;
32094;SDS011;18608;53.688;10.748;2023-05-10T11:20:55;6.63;;;5.70;;
32094;SDS011;18608;53.688;10.748;2023-05-10T11:23:22;8.07;;;5.70;;
32094;SDS011;18608;53.688;10.748;2023-05-10T11:25:48;8.13;;;5.07;;
32094;SDS011;18608;53.688;10.748;2023-05-10T11:28:16;7.90;;;5.73;;
32094;SDS011;18608;53.688;10.748;2023-05-10T11:30:43;5.90;;;5.40;;
32094;SDS011;18608;53.688;10.748;2023-05-10T11:33:09;7.73;;;4.43;;
32094;SDS011;18608;53.688;10.748;2023-05-10T11:35:38;6.80;;;4.77;;
32094;SDS011;18608;53.688;10.748;2023-05-10T11:38:05;11.20;;;5.53;;
32094;SDS011;18608;53.688;10.748;2023-05-10T11:40:38;9.10;;;5.43;;
32094;SDS011;18608;53.688;10.748;2023-05-10T11:43:04;7.27;;;5.23;;
32094;SDS011;18608;53.688;10.748;2023-05-10T11:45:34;8.47;;;5.27;;
32094;SDS011;18608;53.688;10.748;2023-05-10T11:48:00;9.03;;;5.70;;
32094;SDS011;18608;53.688;10.748;2023-05-10T11:50:27;7.30;;;5.67;;
32094;SDS011;18608;53.688;10.748;2023-05-10T11:52:53;5.23;;;4.80;;
32094;SDS011;18608;53.688;10.748;2023-05-10T11:55:20;7.10;;;5.13;;
32094;SDS011;18608;53.688;10.748;2023-05-10T11:57:46;6.33;;;5.43;;
32094;SDS011;18608;53.688;10.748;2023-05-10T12:00:12;7.20;;;5.17;;
32094;SDS011;18608;53.688;10.748;2023-05-10T12:02:38;9.00;;;5.13;;
32094;SDS011;18608;53.688;10.748;2023-05-10T12:05:05;6.60;;;5.10;;
32094;SDS011;18608;53.688;10.748;2023-05-10T12:07:31;11.10;;;5.40;;
32094;SDS011;18608;53.688;10.748;2023-05-10T12:12:43;5.77;;;5.20;;
32094;SDS011;18608;53.688;10.748;2023-05-10T12:15:20;7.13;;;5.40;;
32094;SDS011;18608;53.688;10.748;2023-05-10T12:17:47;8.97;;;6.20;;
32094;SDS011;18608;53.688;10.748;2023-05-10T12:20:14;7.50;;;5.50;;
32094;SDS011;18608;53.688;10.748;2023-05-10T12:22:55;11.70;;;6.53;;
32094;SDS011;18608;53.688;10.748;2023-05-10T12:25:23;6.20;;;5.60;;
32094;SDS011;18608;53.688;10.748;2023-05-10T12:27:54;7.97;;;6.13;;
32094;SDS011;18608;53.688;10.748;2023-05-10T12:30:25;6.90;;;6.20;;
32094;SDS011;18608;53.688;10.748;2023-05-10T12:32:52;9.93;;;8.03;;
32094;SDS011;18608;53.688;10.748;2023-05-10T12:35:18;14.70;;;7.97;;
32094;SDS011;18608;53.688;10.748;2023-05-10T12:37:49;10.90;;;7.60;;
32094;SDS011;18608;53.688;10.748;2023-05-10T12:40:16;13.20;;;6.80;;
32094;SDS011;18608;53.688;10.748;2023-05-10T12:42:42;16.90;;;10.10;;
32094;SDS011;18608;53.688;10.748;2023-05-10T12:45:09;15.20;;;10.73;;
32094;SDS011;18608;53.688;10.748;2023-05-10T12:47:35;10.40;;;8.60;;
32094;SDS011;18608;53.688;10.748;2023-05-10T12:50:02;15.50;;;9.23;;
32094;SDS011;18608;53.688;10.748;2023-05-10T12:52:28;12.00;;;9.67;;
32094;SDS011;18608;53.688;10.748;2023-05-10T12:54:54;11.13;;;9.20;;
32094;SDS011;18608;53.688;10.748;2023-05-10T12:57:20;14.20;;;10.43;;
32094;SDS011;18608;53.688;10.748;2023-05-10T12:59:46;13.90;;;11.17;;
32094;SDS011;18608;53.688;10.748;2023-05-10T13:02:12;14.10;;;11.90;;
32094;SDS011;18608;53.688;10.748;2023-05-10T13:04:39;13.30;;;10.43;;
32094;SDS011;18608;53.688;10.748;2023-05-10T13:07:06;14.23;;;11.30;;
32094;SDS011;18608;53.688;10.748;2023-05-10T13:09:32;17.93;;;13.10;;
32094;SDS011;18608;53.688;10.748;2023-05-10T13:11:58;18.97;;;13.07;;
32094;SDS011;18608;53.688;10.748;2023-05-10T13:14:24;15.37;;;11.40;;
32094;SDS011;18608;53.688;10.748;2023-05-10T13:16:50;14.53;;;11.17;;
32094;SDS011;18608;53.688;10.748;2023-05-10T13:19:16;16.30;;;11.37;;
32094;SDS011;18608;53.688;10.748;2023-05-10T13:21:42;16.57;;;11.30;;
32094;SDS011;18608;53.688;10.748;2023-05-10T13:24:09;15.40;;;12.53;;
32094;SDS011;18608;53.688;10.748;2023-05-10T13:26:35;18.40;;;12.03;;
32094;SDS011;18608;53.688;10.748;2023-05-10T13:29:02;18.80;;;12.10;;
32094;SDS011;18608;53.688;10.748;2023-05-10T13:31:28;24.40;;;11.63;;
32094;SDS011;18608;53.688;10.748;2023-05-10T13:33:54;17.53;;;11.00;;
32094;SDS011;18608;53.688;10.748;2023-05-10T13:36:20;12.53;;;10.40;;
32094;SDS011;18608;53.688;10.748;2023-05-10T13:38:46;14.97;;;11.77;;
32094;SDS011;18608;53.688;10.748;2023-05-10T13:41:12;14.93;;;11.53;;
32094;SDS011;18608;53.688;10.748;2023-05-10T13:43:38;13.63;;;9.73;;
32094;SDS011;18608;53.688;10.748;2023-05-10T13:46:04;11.37;;;10.17;;
32094;SDS011;18608;53.688;10.748;2023-05-10T13:48:30;12.90;;;10.27;;
32094;SDS011;18608;53.688;10.748;2023-05-10T13:50:56;17.07;;;10.23;;
32094;SDS011;18608;53.688;10.748;2023-05-10T13:53:22;12.77;;;9.53;;
32094;SDS011;18608;53.688;10.748;2023-05-10T13:55:48;13.73;;;9.60;;
32094;SDS011;18608;53.688;10.748;2023-05-10T13:58:14;12.77;;;10.63;;
32094;SDS011;18608;53.688;10.748;2023-05-10T14:00:40;13.07;;;9.40;;
32094;SDS011;18608;53.688;10.748;2023-05-10T14:03:06;13.50;;;9.53;;
32094;SDS011;18608;53.688;10.748;2023-05-10T14:05:34;17.43;;;11.43;;
32094;SDS011;18608;53.688;10.748;2023-05-10T14:07:59;11.50;;;8.87;;
32094;SDS011;18608;53.688;10.748;2023-05-10T14:10:25;14.33;;;10.00;;
32094;SDS011;18608;53.688;10.748;2023-05-10T14:12:51;12.40;;;9.10;;
32094;SDS011;18608;53.688;10.748;2023-05-10T14:15:17;12.57;;;9.20;;
32094;SDS011;18608;53.688;10.748;2023-05-10T14:17:43;12.77;;;9.83;;
32094;SDS011;18608;53.688;10.748;2023-05-10T14:20:09;12.90;;;10.13;;
32094;SDS011;18608;53.688;10.748;2023-05-10T14:22:36;13.13;;;10.03;;
32094;SDS011;18608;53.688;10.748;2023-05-10T14:25:02;14.40;;;9.90;;
32094;SDS011;18608;53.688;10.748;2023-05-10T14:27:28;11.67;;;9.27;;
32094;SDS011;18608;53.688;10.748;2023-05-10T14:29:55;17.83;;;9.20;;
32094;SDS011;18608;53.688;10.748;2023-05-10T14:32:21;14.10;;;8.77;;
32094;SDS011;18608;53.688;10.748;2023-05-10T14:34:47;11.40;;;9.17;;
32094;SDS011;18608;53.688;10.748;2023-05-10T14:37:13;13.97;;;10.30;;
32094;SDS011;18608;53.688;10.748;2023-05-10T14:39:40;18.47;;;9.57;;
32094;SDS011;18608;53.688;10.748;2023-05-10T14:42:07;10.83;;;8.70;;
32094;SDS011;18608;53.688;10.748;2023-05-10T14:44:33;15.73;;;8.10;;
32094;SDS011;18608;53.688;10.748;2023-05-10T14:46:59;10.50;;;8.47;;
32094;SDS011;18608;53.688;10.748;2023-05-10T14:49:25;13.20;;;8.33;;
32094;SDS011;18608;53.688;10.748;2023-05-10T14:51:52;9.70;;;7.77;;
32094;SDS011;18608;53.688;10.748;2023-05-10T14:54:18;15.33;;;9.40;;
32094;SDS011;18608;53.688;10.748;2023-05-10T14:56:44;9.87;;;7.97;;
32094;SDS011;18608;53.688;10.748;2023-05-10T14:59:10;9.30;;;8.03;;
32094;SDS011;18608;53.688;10.748;2023-05-10T15:01:36;9.60;;;8.60;;
32094;SDS011;18608;53.688;10.748;2023-05-10T15:04:05;11.80;;;8.60;;
32094;SDS011;18608;53.688;10.748;2023-05-10T15:06:31;14.03;;;7.80;;
32094;SDS011;18608;53.688;10.748;2023-05-10T15:08:58;11.00;;;9.43;;
32094;SDS011;18608;53.688;10.748;2023-05-10T15:11:24;8.60;;;7.50;;
32094;SDS011;18608;53.688;10.748;2023-05-10T15:13:51;11.10;;;7.80;;
32094;SDS011;18608;53.688;10.748;2023-05-10T15:16:17;7.00;;;6.30;;
32094;SDS011;18608;53.688;10.748;2023-05-10T15:18:43;12.63;;;8.00;;